Fuengirola, Espanja

21. huhtikuuta 2015 klo 04:53 (CEST) (GMT +0200)
IMALAGAM6 | | Change Station
CLOSE
Current Station
Omat sääasemat
Location: Mijas, MALAGA
Korkeus: 997 ft
Lähimmät sääasemat

Kork 997 ft 36.60 °N, 4.63 °W | Updated 7 minutes ago

Clear
Selkeää
56.7 °F
Tuntuu kuin 56.7 °F
N
2.2
Tuuli Suunnaltaan vaihteleva Tuuli ilmansuunnasta Etelä
Gusts 4.5 mph

Tänään
Korkea -- | Matala -- °F
--% Sateen mahd.
Eilen
Korkea -- | Matala -- °F
Precip. -- tuumaa
7:37 AM 8:57 PM
Kasvava sirppi, 7% visible
Ilmanpaine 30.06 tuumaa
Näkyvyys -9999.0 mailia
Pilviä
Kastepiste 45 °F
Ilmankosteus 65%
Sademäärä 0.00 tuumaa
Lumensyvyys Ei saatavilla
UV Ei saatavilla
Pollen Ei saatavilla
Ilmanlaatu Ei saatavilla
Flu Activity Ei saatavilla
METAR LEMG 210230Z 30002KT CAVOK 12/08 Q1018 NOSIG

More Conditions Fewer Conditions

Ilmanpaine 30.06 tuumaa
Näkyvyys -9999.0 mailia
Pilviä
Kastepiste 45 °F
Ilmankosteus 65%
Sademäärä 0.00 tuumaa
Lumensyvyys Ei saatavilla
UV Ei saatavilla
Pollen Ei saatavilla
Ilmanlaatu Ei saatavilla
Flu Activity Ei saatavilla
METAR LEMG 210230Z 30002KT CAVOK 12/08 Q1018 NOSIG

More Conditions Fewer Conditions

10-Day Weather Forecast

Almanac

Tähtitiede

Apr. 21, 2015 Nousuaika Laskuaika
Valoisa aika
Porvarillinen hämärä
Nauttinen hämärä
Astronominen hämärä
Kuu
Näkyvän valon pituus
Päivän pituus
Tomorrow will be .
, % of the Moon is Illuminated

Tämän päivän ennätykset

Country Highs Country Lows

Community

WunderPhotos

Upload Photos

1,815,283 photos uploaded!

WunderBlogs® & News

Nearby

Ilmanlaatu

  Ilmanlaatu AQ Index Pollutant
Not available.

Lumensyvyys

Station Depth Korkeus

Maanjäristysaktiivisuus

Paikkakunta Distance Mag. Time & Date
Minimum magnitude displayed is 2.5.

Coastal Water Temperatures

Paikka Lämpötila

Stations

Lähimmät sääasemat

Aseman sijainti Lämpötila Tuulen hyytävyys Kastepiste Ilmankosteus Tuuli Precip. Kork Päivitetty Tyyppi